createdAt,value
2022-11-12T00:02:31.307Z,862.08
2022-11-12T00:05:17.244Z,862.53
2022-11-12T00:08:03.481Z,856.03
2022-11-12T00:10:48.999Z,856.67
2022-11-12T00:13:34.446Z,859.58
2022-11-12T00:16:19.945Z,861.17
2022-11-12T00:19:05.526Z,857.13
2022-11-12T00:21:50.914Z,859.05
2022-11-12T00:24:36.465Z,856.22
2022-11-12T00:27:21.947Z,867.13
2022-11-12T00:30:08.134Z,861.23
2022-11-12T00:32:53.501Z,866.13
2022-11-12T00:35:38.749Z,868.72
2022-11-12T00:38:24.435Z,861.83
2022-11-12T00:41:09.881Z,866.00
2022-11-12T00:43:55.361Z,860.17
2022-11-12T00:46:41.018Z,856.25
2022-11-12T00:49:26.312Z,858.65
2022-11-12T00:52:11.893Z,856.33
2022-11-12T00:54:57.157Z,850.72
2022-11-12T00:57:42.546Z,858.00
2022-11-12T01:00:27.958Z,857.73
2022-11-12T01:03:13.388Z,861.67
2022-11-12T01:06:13.541Z,857.87
2022-11-12T01:08:58.903Z,856.08
2022-11-12T01:11:44.347Z,862.03
2022-11-12T01:14:29.826Z,857.00
2022-11-12T01:17:15.221Z,868.03
2022-11-12T01:20:00.717Z,859.58
2022-11-12T01:22:46.146Z,860.37
2022-11-12T01:25:31.854Z,863.70
2022-11-12T01:28:17.234Z,863.50
2022-11-12T01:31:17.945Z,863.38
2022-11-12T01:34:06.654Z,861.80
2022-11-12T01:36:51.899Z,861.85
2022-11-12T01:39:37.792Z,867.85
2022-11-12T01:42:26.097Z,869.78
2022-11-12T01:45:15.895Z,872.22
2022-11-12T01:48:02.213Z,867.92
2022-11-12T01:50:48.042Z,868.17
2022-11-12T01:53:41.925Z,871.45
2022-11-12T01:56:30.735Z,873.92
2022-11-12T01:59:29.502Z,871.38
2022-11-12T02:02:15.073Z,872.83
2022-11-12T02:05:01.666Z,868.85
2022-11-12T02:07:48.721Z,872.08
2022-11-12T02:10:39.363Z,870.85
2022-11-12T02:13:43.306Z,873.20
2022-11-12T02:16:37.366Z,870.93
2022-11-12T02:19:22.817Z,874.67
2022-11-12T02:22:07.969Z,866.72
2022-11-12T02:24:53.509Z,870.28
2022-11-12T02:27:39.466Z,861.60
2022-11-12T02:30:46.640Z,872.88
2022-11-12T02:33:32.178Z,872.97
2022-11-12T02:36:18.146Z,867.47
2022-11-12T02:39:04.013Z,868.20
2022-11-12T02:41:49.352Z,866.10
2022-11-12T02:44:34.970Z,866.45
2022-11-12T02:47:20.206Z,875.25
2022-11-12T02:50:06.204Z,869.13
2022-11-12T02:52:51.756Z,876.03
2022-11-12T02:55:37.223Z,867.25
2022-11-12T02:58:22.887Z,869.67
2022-11-12T03:01:08.305Z,870.83
2022-11-12T03:03:53.941Z,874.70
2022-11-12T03:06:39.863Z,871.65
2022-11-12T03:09:25.311Z,879.75
2022-11-12T03:12:10.931Z,878.33
2022-11-12T03:14:56.313Z,874.60
2022-11-12T03:17:41.719Z,879.78
2022-11-12T03:20:27.680Z,881.97
2022-11-12T03:23:13.012Z,872.17
2022-11-12T03:25:58.890Z,874.80
2022-11-12T03:28:44.725Z,873.95
2022-11-12T03:31:30.320Z,873.60
2022-11-12T03:34:15.714Z,875.20
2022-11-12T03:37:01.314Z,872.92
2022-11-12T03:39:46.711Z,875.97
2022-11-12T03:42:32.155Z,881.17
2022-11-12T03:45:19.342Z,882.90
2022-11-12T03:48:05.098Z,883.35
2022-11-12T03:50:50.310Z,891.17
2022-11-12T03:53:35.731Z,883.15
2022-11-12T03:56:21.333Z,879.33
2022-11-12T03:59:06.863Z,879.95
2022-11-12T04:01:52.314Z,887.90
2022-11-12T04:04:56.211Z,887.70
2022-11-12T04:08:00.627Z,881.25
2022-11-12T04:10:46.417Z,884.03
2022-11-12T04:13:31.911Z,883.92
2022-11-12T04:16:40.811Z,882.67
2022-11-12T04:19:44.826Z,891.65
2022-11-12T04:22:30.661Z,890.22
2022-11-12T04:25:34.670Z,886.05
2022-11-12T04:28:20.250Z,884.95
2022-11-12T04:31:05.607Z,887.72
2022-11-12T04:33:51.139Z,891.00
2022-11-12T04:36:36.628Z,887.40
2022-11-12T04:39:22.115Z,892.63
2022-11-12T04:42:27.802Z,894.13
2022-11-12T04:45:13.467Z,890.85
2022-11-12T04:47:59.084Z,892.70
2022-11-12T04:50:47.430Z,887.45
2022-11-12T04:53:32.728Z,895.95
2022-11-12T04:56:18.118Z,898.65
2022-11-12T04:59:03.727Z,907.83
2022-11-12T05:01:49.203Z,919.67
2022-11-12T05:04:34.720Z,916.42
2022-11-12T05:07:20.295Z,904.28
2022-11-12T05:10:05.922Z,921.92
2022-11-12T05:12:51.458Z,923.50
2022-11-12T05:15:36.979Z,927.05
2022-11-12T05:18:23.081Z,937.47
2022-11-12T05:21:26.823Z,934.13
2022-11-12T05:24:33.733Z,941.25
2022-11-12T05:27:21.014Z,951.63
2022-11-12T05:30:07.806Z,954.22
2022-11-12T05:32:53.519Z,937.10
2022-11-12T05:35:38.835Z,932.22
2022-11-12T05:38:24.584Z,947.67
2022-11-12T05:41:10.233Z,988.27
2022-11-12T05:43:55.872Z,989.22
2022-11-12T05:46:41.398Z,936.45
2022-11-12T05:49:26.768Z,912.92
2022-11-12T05:52:12.269Z,912.78
2022-11-12T05:54:57.584Z,898.22
2022-11-12T05:57:43.098Z,895.38
2022-11-12T06:00:28.564Z,906.17
2022-11-12T06:03:14.102Z,896.03
2022-11-12T06:05:59.668Z,892.58
2022-11-12T06:08:45.046Z,889.43
2022-11-12T06:11:30.963Z,885.63
2022-11-12T06:14:16.202Z,879.90
2022-11-12T06:17:02.023Z,878.58
2022-11-12T06:19:47.498Z,873.88
2022-11-12T06:22:32.897Z,878.60
2022-11-12T06:25:18.261Z,873.80
2022-11-12T06:28:03.824Z,875.83
2022-11-12T06:30:49.705Z,872.70
2022-11-12T06:33:35.128Z,878.17
2022-11-12T06:36:20.937Z,880.17
2022-11-12T06:39:06.106Z,877.03
2022-11-12T06:41:51.518Z,871.80
2022-11-12T06:44:36.842Z,864.08
2022-11-12T06:47:22.386Z,870.28
2022-11-12T06:50:09.572Z,876.78
2022-11-12T06:52:59.210Z,880.65
2022-11-12T06:55:44.518Z,889.20
2022-11-12T06:58:30.271Z,871.22
2022-11-12T07:01:17.204Z,856.90
2022-11-12T07:04:03.872Z,866.58
2022-11-12T07:06:49.184Z,865.08
2022-11-12T07:09:34.662Z,866.83
2022-11-12T07:12:20.158Z,860.40
2022-11-12T07:15:06.166Z,864.87
2022-11-12T07:17:51.767Z,858.10
2022-11-12T07:20:38.118Z,856.38
2022-11-12T07:23:24.635Z,864.23
2022-11-12T07:26:14.308Z,851.45
2022-11-12T07:28:59.612Z,858.17
2022-11-12T07:31:45.345Z,856.45
2022-11-12T07:34:31.674Z,862.93
2022-11-12T07:37:17.017Z,860.17
2022-11-12T07:40:03.744Z,859.63
2022-11-12T07:42:49.027Z,862.75
2022-11-12T07:45:34.506Z,860.45
2022-11-12T07:48:20.016Z,854.42
2022-11-12T07:51:07.892Z,861.90
2022-11-12T07:53:59.013Z,862.30
2022-11-12T07:56:44.920Z,854.65
2022-11-12T07:59:30.573Z,857.65
2022-11-12T08:02:16.011Z,865.10
2022-11-12T08:05:01.429Z,863.67
2022-11-12T08:07:46.869Z,860.25
2022-11-12T08:10:32.198Z,863.92
2022-11-12T08:13:17.783Z,875.33
2022-11-12T08:16:03.550Z,869.60
2022-11-12T08:18:48.846Z,863.20
2022-11-12T08:21:34.868Z,871.50
2022-11-12T08:24:20.145Z,874.17
2022-11-12T08:27:05.679Z,862.37
2022-11-12T08:29:51.066Z,862.58
2022-11-12T08:32:36.686Z,860.87
2022-11-12T08:35:21.906Z,862.88
2022-11-12T08:38:09.230Z,865.10
2022-11-12T08:40:54.538Z,872.00
2022-11-12T08:43:41.584Z,862.47
2022-11-12T08:46:27.053Z,862.33
2022-11-12T08:49:12.724Z,860.47
2022-11-12T08:51:58.222Z,857.72
2022-11-12T08:54:43.702Z,871.25
2022-11-12T08:57:29.063Z,865.97
2022-11-12T09:00:14.972Z,859.20
2022-11-12T09:03:01.442Z,865.43
2022-11-12T09:05:47.198Z,869.40
2022-11-12T09:08:34.886Z,866.35
2022-11-12T09:11:20.148Z,865.10
2022-11-12T09:14:05.685Z,866.07
2022-11-12T09:16:51.104Z,864.10
2022-11-12T09:19:40.126Z,881.38
2022-11-12T09:22:28.643Z,879.63
2022-11-12T09:25:14.059Z,863.47
2022-11-12T09:28:07.010Z,868.77
2022-11-12T09:30:54.308Z,864.15
2022-11-12T09:33:39.530Z,864.63
2022-11-12T09:36:25.133Z,864.08
2022-11-12T09:39:10.973Z,872.27
2022-11-12T09:42:01.782Z,874.92
2022-11-12T09:44:59.462Z,877.80
2022-11-12T09:47:51.524Z,879.00
2022-11-12T09:50:41.715Z,874.83
2022-11-12T09:53:47.371Z,875.85
2022-11-12T09:56:32.870Z,876.13
2022-11-12T09:59:19.129Z,878.13
2022-11-12T10:02:19.568Z,869.50
2022-11-12T10:05:31.305Z,871.00
2022-11-12T10:08:26.091Z,871.78
2022-11-12T10:12:04.316Z,866.08
2022-11-12T10:15:23.243Z,872.17
2022-11-12T10:18:29.356Z,867.53
2022-11-12T10:21:35.011Z,865.53
2022-11-12T10:24:22.711Z,871.25
2022-11-12T10:27:16.611Z,869.50
2022-11-12T10:30:10.327Z,861.75
2022-11-12T10:32:55.512Z,870.47
2022-11-12T10:35:41.005Z,867.17
2022-11-12T10:38:28.857Z,868.28
2022-11-12T10:41:27.339Z,872.30
2022-11-12T10:44:15.051Z,870.05
2022-11-12T10:47:18.769Z,857.40
2022-11-12T10:50:19.567Z,865.35
2022-11-12T10:53:08.074Z,867.50
2022-11-12T10:56:02.422Z,870.72
2022-11-12T10:59:09.034Z,870.83
2022-11-12T11:01:57.617Z,868.87
2022-11-12T11:04:44.751Z,876.67
2022-11-12T11:07:30.198Z,854.08
2022-11-12T11:10:28.786Z,860.92
2022-11-12T11:13:23.506Z,870.78
2022-11-12T11:16:15.920Z,868.53
2022-11-12T11:19:05.315Z,873.75
2022-11-12T11:21:50.458Z,870.55
2022-11-12T11:25:03.130Z,876.40
2022-11-12T11:28:08.628Z,866.60
2022-11-12T11:31:04.100Z,869.57
2022-11-12T11:34:17.104Z,870.53
2022-11-12T11:37:28.715Z,873.80
2022-11-12T11:40:26.738Z,875.33
2022-11-12T11:43:15.486Z,876.30
2022-11-12T11:46:40.024Z,876.03
2022-11-12T11:49:34.262Z,870.50
2022-11-12T11:52:53.002Z,880.03
2022-11-12T11:55:48.722Z,873.95
2022-11-12T11:58:39.732Z,869.33
2022-11-12T12:01:58.510Z,874.33
2022-11-12T12:05:08.935Z,868.88
2022-11-12T12:08:02.914Z,858.65
2022-11-12T12:11:13.021Z,873.07
2022-11-12T12:14:10.388Z,866.03
2022-11-12T12:17:18.111Z,872.63
2022-11-12T12:20:17.479Z,865.33
2022-11-12T12:23:50.370Z,869.85
2022-11-12T12:26:43.980Z,874.80
2022-11-12T12:29:40.809Z,872.30
2022-11-12T12:32:59.149Z,871.53
2022-11-12T12:35:59.630Z,864.50
2022-11-12T12:38:48.633Z,863.88
2022-11-12T12:41:50.011Z,866.67
2022-11-12T12:45:03.278Z,873.28
2022-11-12T12:47:49.832Z,867.55
2022-11-12T12:50:38.775Z,867.28
2022-11-12T12:53:27.203Z,874.00
2022-11-12T12:56:15.495Z,868.85
2022-11-12T12:59:08.055Z,865.60
2022-11-12T13:02:02.268Z,867.60
2022-11-12T13:04:53.637Z,870.33
2022-11-12T13:07:43.168Z,870.03
2022-11-12T13:10:47.237Z,865.65
2022-11-12T13:13:38.390Z,857.20
2022-11-12T13:16:50.342Z,859.13
2022-11-12T13:20:10.021Z,861.83
2022-11-12T13:22:55.607Z,858.13
2022-11-12T13:25:41.015Z,860.22
2022-11-12T13:28:26.748Z,860.65
2022-11-12T13:31:29.275Z,860.27
2022-11-12T13:34:21.502Z,857.13
2022-11-12T13:37:18.910Z,868.60
2022-11-12T13:40:09.991Z,868.55
2022-11-12T13:43:02.854Z,870.92
2022-11-12T13:46:11.170Z,872.55
2022-11-12T13:49:03.144Z,874.67
2022-11-12T13:51:52.303Z,864.42
2022-11-12T13:54:38.476Z,868.22
2022-11-12T13:57:24.041Z,870.05
2022-11-12T14:00:17.079Z,873.03
2022-11-12T14:03:06.159Z,870.20
2022-11-12T14:05:52.190Z,867.63
2022-11-12T14:09:12.019Z,866.13
2022-11-12T14:12:15.347Z,862.83
2022-11-12T14:15:31.285Z,868.10
2022-11-12T14:18:44.349Z,861.53
2022-11-12T14:21:29.811Z,863.17
2022-11-12T14:24:14.973Z,866.58
2022-11-12T14:27:00.785Z,869.38
2022-11-12T14:29:45.893Z,865.80
2022-11-12T14:32:39.291Z,863.97
2022-11-12T14:35:31.502Z,863.47
2022-11-12T14:38:36.915Z,856.67
2022-11-12T14:41:33.116Z,863.55
2022-11-12T14:44:22.286Z,865.47
2022-11-12T14:47:09.991Z,861.77
2022-11-12T14:49:55.529Z,864.67
2022-11-12T14:52:43.535Z,865.58
2022-11-12T14:55:35.536Z,871.13
2022-11-12T14:58:23.249Z,866.80
2022-11-12T15:04:51.151Z,864.65
2022-11-12T15:07:51.942Z,864.50
2022-11-12T15:10:43.088Z,858.33
2022-11-12T15:13:37.635Z,861.10
2022-11-12T15:16:28.220Z,860.95
2022-11-12T15:19:26.382Z,857.10
2022-11-12T15:22:22.846Z,864.67
2022-11-12T15:25:31.303Z,863.67
2022-11-12T15:28:25.575Z,859.10
2022-11-12T15:31:21.174Z,856.35
2022-11-12T15:34:27.536Z,855.25
2022-11-12T15:37:25.737Z,860.00
2022-11-12T15:40:20.687Z,855.80
2022-11-12T15:43:14.425Z,861.75
2022-11-12T15:45:59.946Z,862.85
2022-11-12T15:48:45.439Z,858.30
2022-11-12T15:51:30.913Z,858.72
2022-11-12T15:54:16.357Z,858.55
2022-11-12T15:57:01.814Z,854.08
2022-11-12T16:00:03.060Z,864.27
2022-11-12T16:03:17.704Z,859.95
2022-11-12T16:06:08.552Z,855.72
2022-11-12T16:08:54.924Z,854.05
2022-11-12T16:11:40.693Z,866.27
2022-11-12T16:14:26.772Z,865.75
2022-11-12T16:17:14.661Z,862.70
2022-11-12T16:20:01.096Z,866.25
2022-11-12T16:22:46.263Z,865.28
2022-11-12T16:25:34.506Z,868.78
2022-11-12T16:28:19.918Z,868.60
2022-11-12T16:31:06.570Z,865.78
2022-11-12T16:33:52.091Z,869.37
2022-11-12T16:36:38.524Z,859.42
2022-11-12T16:39:23.792Z,865.85
2022-11-12T16:42:12.662Z,866.50
2022-11-12T16:44:58.072Z,863.07
2022-11-12T16:47:45.991Z,859.05
2022-11-12T16:50:32.261Z,865.20
2022-11-12T16:53:17.797Z,865.47
2022-11-12T16:56:03.144Z,865.77
2022-11-12T16:58:49.744Z,866.15
2022-11-12T17:01:35.037Z,868.50
2022-11-12T17:04:21.171Z,857.45
2022-11-12T17:07:06.763Z,878.00
2022-11-12T17:09:52.864Z,862.55
2022-11-12T17:12:38.447Z,870.85
2022-11-12T17:15:23.886Z,873.42
2022-11-12T17:18:10.254Z,866.03
2022-11-12T17:20:55.610Z,871.10
2022-11-12T17:23:42.960Z,871.53
2022-11-12T17:26:28.257Z,872.17
2022-11-12T17:29:13.538Z,866.25
2022-11-12T17:31:59.039Z,867.30
2022-11-12T17:34:44.665Z,870.95
2022-11-12T17:37:30.072Z,871.83
2022-11-12T17:40:15.889Z,871.30
2022-11-12T17:43:01.447Z,869.97
2022-11-12T17:45:54.341Z,871.50
2022-11-12T17:48:39.894Z,870.22
2022-11-12T17:51:27.179Z,874.22
2022-11-12T17:54:12.401Z,869.30
2022-11-12T17:56:58.902Z,874.53
2022-11-12T17:59:44.409Z,872.67
2022-11-12T18:02:29.730Z,872.72
2022-11-12T18:05:15.258Z,873.75
2022-11-12T18:08:00.763Z,871.92
2022-11-12T18:10:46.250Z,864.92
2022-11-12T18:13:31.817Z,878.23
2022-11-12T18:16:25.575Z,871.35
2022-11-12T18:19:12.902Z,870.20
2022-11-12T18:21:58.901Z,873.72
2022-11-12T18:24:44.835Z,871.03
2022-11-12T18:27:30.198Z,874.45
2022-11-12T18:30:19.245Z,875.55
2022-11-12T18:33:05.834Z,874.42
2022-11-12T18:36:01.215Z,874.17
2022-11-12T18:38:48.304Z,864.38
2022-11-12T18:41:34.035Z,868.83
2022-11-12T18:44:24.738Z,872.77
2022-11-12T18:47:11.163Z,871.70
2022-11-12T18:49:56.466Z,864.33
2022-11-12T18:52:42.101Z,872.63
2022-11-12T18:55:27.415Z,870.37
2022-11-12T18:58:12.885Z,867.45
2022-11-12T19:01:07.082Z,871.50
2022-11-12T19:03:54.510Z,872.08
2022-11-12T19:06:39.864Z,873.88
2022-11-12T19:09:25.461Z,863.63
2022-11-12T19:12:10.746Z,865.28
2022-11-12T19:14:56.242Z,868.63
2022-11-12T19:17:42.719Z,871.33
2022-11-12T19:20:29.718Z,873.80
2022-11-12T19:23:15.398Z,868.13
2022-11-12T19:26:05.690Z,874.67
2022-11-12T19:28:51.267Z,870.92
2022-11-12T19:31:36.816Z,880.83
2022-11-12T19:34:22.329Z,870.65
2022-11-12T19:40:13.620Z,867.30
2022-11-12T19:42:59.030Z,873.35
2022-11-12T19:45:44.755Z,879.03
2022-11-12T19:48:31.243Z,867.63
2022-11-12T19:51:16.767Z,879.40
2022-11-12T19:54:02.399Z,873.70
2022-11-12T19:56:47.501Z,879.58
2022-11-12T19:59:32.880Z,878.25
2022-11-12T20:02:18.257Z,881.05
2022-11-12T20:05:04.441Z,878.93
2022-11-12T20:07:50.429Z,875.93
2022-11-12T20:10:36.331Z,872.93
2022-11-12T20:13:22.170Z,881.00
2022-11-12T20:16:13.721Z,883.08
2022-11-12T20:18:59.691Z,873.93
2022-11-12T20:21:44.868Z,877.83
2022-11-12T20:24:30.396Z,876.47
2022-11-12T20:27:17.444Z,879.15
2022-11-12T20:30:03.406Z,875.28
2022-11-12T20:32:49.100Z,881.08
2022-11-12T20:35:36.236Z,875.95
2022-11-12T20:38:21.732Z,879.65
2022-11-12T20:41:12.066Z,877.25
2022-11-12T20:44:00.188Z,871.47
2022-11-12T20:46:46.105Z,879.90
2022-11-12T20:49:31.571Z,877.73
2022-11-12T20:52:17.139Z,876.83
2022-11-12T20:55:02.638Z,874.50
2022-11-12T20:57:48.178Z,877.55
2022-11-12T21:00:33.819Z,865.70
2022-11-12T21:03:19.389Z,870.25
2022-11-12T21:06:06.435Z,866.10
2022-11-12T21:08:52.110Z,869.80
2022-11-12T21:11:37.683Z,872.10
2022-11-12T21:14:23.026Z,873.20
2022-11-12T21:17:08.775Z,860.28
2022-11-12T21:19:53.897Z,868.63
2022-11-12T21:22:39.495Z,868.35
2022-11-12T21:25:25.359Z,864.47
2022-11-12T21:28:10.696Z,864.88
2022-11-12T21:31:03.279Z,864.33
2022-11-12T21:33:50.407Z,861.80
2022-11-12T21:36:35.868Z,868.33
2022-11-12T21:39:21.397Z,875.78
2022-11-12T21:42:06.604Z,865.23
2022-11-12T21:44:52.079Z,869.08
2022-11-12T21:47:37.859Z,871.65
2022-11-12T21:50:23.076Z,869.97
2022-11-12T21:53:08.669Z,870.85
2022-11-12T21:56:00.363Z,871.45
2022-11-12T21:58:46.512Z,871.50
2022-11-12T22:01:34.314Z,872.88
2022-11-12T22:04:20.114Z,872.80
2022-11-12T22:07:05.804Z,871.78
2022-11-12T22:09:56.327Z,875.10
2022-11-12T22:12:58.682Z,874.47
2022-11-12T22:15:47.219Z,879.53
2022-11-12T22:18:34.207Z,877.40
2022-11-12T22:21:25.336Z,878.25
2022-11-12T22:24:11.770Z,883.95
2022-11-12T22:26:58.949Z,879.80
2022-11-12T22:29:48.145Z,882.75
2022-11-12T22:32:33.569Z,879.25
2022-11-12T22:35:19.432Z,883.78
2022-11-12T22:38:05.060Z,879.42
2022-11-12T22:40:50.438Z,880.55
2022-11-12T22:43:39.016Z,885.80
2022-11-12T22:46:35.775Z,870.97
2022-11-12T22:49:20.996Z,868.80
2022-11-12T22:52:06.684Z,872.17
2022-11-12T22:54:52.263Z,872.67
2022-11-12T22:57:37.690Z,872.00
2022-11-12T23:00:31.423Z,868.42
2022-11-12T23:03:16.766Z,873.28
2022-11-12T23:06:06.294Z,869.50
2022-11-12T23:08:53.696Z,872.33
2022-11-12T23:11:39.232Z,868.10
2022-11-12T23:14:24.780Z,867.45
2022-11-12T23:17:10.690Z,870.90
2022-11-12T23:19:56.026Z,872.45
2022-11-12T23:22:41.537Z,869.83
2022-11-12T23:25:27.118Z,878.88
2022-11-12T23:28:12.450Z,874.35
2022-11-12T23:30:58.222Z,869.53
2022-11-12T23:33:48.895Z,870.25
2022-11-12T23:36:34.326Z,867.55
2022-11-12T23:39:19.824Z,868.78
2022-11-12T23:42:05.207Z,870.72
2022-11-12T23:44:50.670Z,871.53
2022-11-12T23:47:36.627Z,875.05
2022-11-12T23:50:21.925Z,873.60
2022-11-12T23:53:07.549Z,872.42
2022-11-12T23:55:53.516Z,867.72
2022-11-12T23:58:40.172Z,868.42
